sensor_id;sensor_type;location;lat;lon;timestamp;P1;durP1;ratioP1;P2;durP2;ratioP2
19329;SDS011;9799;48.214;16.388;2023-01-19T00:01:31;7.73;;;5.93;;
19329;SDS011;9799;48.214;16.388;2023-01-19T00:04:52;7.33;;;5.83;;
19329;SDS011;9799;48.214;16.388;2023-01-19T00:08:14;6.93;;;6.20;;
19329;SDS011;9799;48.214;16.388;2023-01-19T00:11:36;8.03;;;6.70;;
19329;SDS011;9799;48.214;16.388;2023-01-19T00:14:57;9.97;;;6.90;;
19329;SDS011;9799;48.214;16.388;2023-01-19T00:18:18;7.80;;;6.20;;
19329;SDS011;9799;48.214;16.388;2023-01-19T00:21:39;6.80;;;5.90;;
19329;SDS011;9799;48.214;16.388;2023-01-19T00:25:02;7.40;;;6.60;;
19329;SDS011;9799;48.214;16.388;2023-01-19T00:28:23;8.03;;;6.43;;
19329;SDS011;9799;48.214;16.388;2023-01-19T00:31:45;8.07;;;6.27;;
19329;SDS011;9799;48.214;16.388;2023-01-19T00:35:06;8.60;;;6.53;;
19329;SDS011;9799;48.214;16.388;2023-01-19T00:38:28;8.17;;;6.40;;
19329;SDS011;9799;48.214;16.388;2023-01-19T00:41:50;8.63;;;6.60;;
19329;SDS011;9799;48.214;16.388;2023-01-19T00:45:28;8.73;;;6.67;;
19329;SDS011;9799;48.214;16.388;2023-01-19T00:48:50;6.87;;;6.20;;
19329;SDS011;9799;48.214;16.388;2023-01-19T00:52:11;8.50;;;6.67;;
19329;SDS011;9799;48.214;16.388;2023-01-19T00:55:33;6.83;;;5.63;;
19329;SDS011;9799;48.214;16.388;2023-01-19T00:58:55;7.60;;;6.10;;
19329;SDS011;9799;48.214;16.388;2023-01-19T01:02:16;7.77;;;6.43;;
19329;SDS011;9799;48.214;16.388;2023-01-19T01:05:39;7.30;;;6.40;;
19329;SDS011;9799;48.214;16.388;2023-01-19T01:09:01;9.10;;;7.03;;
19329;SDS011;9799;48.214;16.388;2023-01-19T01:12:29;8.73;;;7.03;;
19329;SDS011;9799;48.214;16.388;2023-01-19T01:15:52;8.47;;;6.63;;
19329;SDS011;9799;48.214;16.388;2023-01-19T01:19:14;9.50;;;6.80;;
19329;SDS011;9799;48.214;16.388;2023-01-19T01:22:36;10.30;;;7.13;;
19329;SDS011;9799;48.214;16.388;2023-01-19T01:25:57;7.20;;;6.00;;
19329;SDS011;9799;48.214;16.388;2023-01-19T01:29:18;7.50;;;6.50;;
19329;SDS011;9799;48.214;16.388;2023-01-19T01:32:41;8.43;;;6.83;;
19329;SDS011;9799;48.214;16.388;2023-01-19T01:36:04;7.60;;;6.27;;
19329;SDS011;9799;48.214;16.388;2023-01-19T01:39:25;8.00;;;6.50;;
19329;SDS011;9799;48.214;16.388;2023-01-19T01:42:47;8.67;;;6.77;;
19329;SDS011;9799;48.214;16.388;2023-01-19T01:46:08;8.43;;;6.47;;
19329;SDS011;9799;48.214;16.388;2023-01-19T01:49:31;7.53;;;6.17;;
19329;SDS011;9799;48.214;16.388;2023-01-19T01:52:52;8.70;;;6.50;;
19329;SDS011;9799;48.214;16.388;2023-01-19T01:56:19;6.90;;;6.00;;
19329;SDS011;9799;48.214;16.388;2023-01-19T01:59:45;7.17;;;6.03;;
19329;SDS011;9799;48.214;16.388;2023-01-19T02:03:09;8.03;;;6.50;;
19329;SDS011;9799;48.214;16.388;2023-01-19T02:06:31;8.83;;;6.47;;
19329;SDS011;9799;48.214;16.388;2023-01-19T02:09:53;7.13;;;6.43;;
19329;SDS011;9799;48.214;16.388;2023-01-19T02:13:31;8.17;;;6.67;;
19329;SDS011;9799;48.214;16.388;2023-01-19T02:16:55;9.53;;;7.13;;
19329;SDS011;9799;48.214;16.388;2023-01-19T02:20:16;10.10;;;6.57;;
19329;SDS011;9799;48.214;16.388;2023-01-19T02:23:43;9.03;;;6.90;;
19329;SDS011;9799;48.214;16.388;2023-01-19T02:27:05;9.57;;;7.00;;
19329;SDS011;9799;48.214;16.388;2023-01-19T02:30:28;8.83;;;6.87;;
19329;SDS011;9799;48.214;16.388;2023-01-19T02:33:51;7.10;;;6.33;;
19329;SDS011;9799;48.214;16.388;2023-01-19T02:37:13;7.93;;;6.73;;
19329;SDS011;9799;48.214;16.388;2023-01-19T02:40:38;9.17;;;6.77;;
19329;SDS011;9799;48.214;16.388;2023-01-19T02:44:02;7.33;;;6.30;;
19329;SDS011;9799;48.214;16.388;2023-01-19T02:47:25;14.30;;;7.13;;
19329;SDS011;9799;48.214;16.388;2023-01-19T02:50:47;7.50;;;6.50;;
19329;SDS011;9799;48.214;16.388;2023-01-19T02:54:12;7.67;;;6.53;;
19329;SDS011;9799;48.214;16.388;2023-01-19T02:57:59;7.60;;;6.27;;
19329;SDS011;9799;48.214;16.388;2023-01-19T03:01:30;7.50;;;6.23;;
19329;SDS011;9799;48.214;16.388;2023-01-19T03:05:18;7.03;;;6.10;;
19329;SDS011;9799;48.214;16.388;2023-01-19T03:08:50;8.27;;;6.20;;
19329;SDS011;9799;48.214;16.388;2023-01-19T03:12:19;8.20;;;6.30;;
19329;SDS011;9799;48.214;16.388;2023-01-19T03:15:47;7.40;;;5.73;;
19329;SDS011;9799;48.214;16.388;2023-01-19T03:19:14;12.20;;;6.63;;
19329;SDS011;9799;48.214;16.388;2023-01-19T03:22:39;7.53;;;5.87;;
19329;SDS011;9799;48.214;16.388;2023-01-19T03:26:03;8.03;;;6.17;;
19329;SDS011;9799;48.214;16.388;2023-01-19T03:29:29;7.03;;;6.10;;
19329;SDS011;9799;48.214;16.388;2023-01-19T03:32:57;8.50;;;6.80;;
19329;SDS011;9799;48.214;16.388;2023-01-19T03:36:24;7.27;;;6.37;;
19329;SDS011;9799;48.214;16.388;2023-01-19T03:39:50;7.43;;;6.00;;
19329;SDS011;9799;48.214;16.388;2023-01-19T03:43:12;9.57;;;7.00;;
19329;SDS011;9799;48.214;16.388;2023-01-19T03:46:36;6.63;;;5.90;;
19329;SDS011;9799;48.214;16.388;2023-01-19T03:50:00;9.13;;;6.83;;
19329;SDS011;9799;48.214;16.388;2023-01-19T03:53:23;9.97;;;7.10;;
19329;SDS011;9799;48.214;16.388;2023-01-19T03:56:44;8.37;;;6.27;;
19329;SDS011;9799;48.214;16.388;2023-01-19T04:00:06;8.63;;;7.07;;
19329;SDS011;9799;48.214;16.388;2023-01-19T04:03:28;9.50;;;7.57;;
19329;SDS011;9799;48.214;16.388;2023-01-19T04:06:50;7.70;;;6.30;;
19329;SDS011;9799;48.214;16.388;2023-01-19T04:10:11;10.70;;;7.97;;
19329;SDS011;9799;48.214;16.388;2023-01-19T04:13:34;9.27;;;7.23;;
19329;SDS011;9799;48.214;16.388;2023-01-19T04:16:56;9.53;;;7.93;;
19329;SDS011;9799;48.214;16.388;2023-01-19T04:20:17;8.80;;;7.13;;
19329;SDS011;9799;48.214;16.388;2023-01-19T04:23:41;8.40;;;7.50;;
19329;SDS011;9799;48.214;16.388;2023-01-19T04:27:04;8.70;;;7.03;;
19329;SDS011;9799;48.214;16.388;2023-01-19T04:30:25;8.60;;;7.60;;
19329;SDS011;9799;48.214;16.388;2023-01-19T04:33:47;8.57;;;7.30;;
19329;SDS011;9799;48.214;16.388;2023-01-19T04:37:08;11.90;;;8.50;;
19329;SDS011;9799;48.214;16.388;2023-01-19T04:40:31;14.57;;;8.83;;
19329;SDS011;9799;48.214;16.388;2023-01-19T04:43:52;10.57;;;7.37;;
19329;SDS011;9799;48.214;16.388;2023-01-19T04:47:13;12.37;;;9.00;;
19329;SDS011;9799;48.214;16.388;2023-01-19T04:50:34;11.20;;;8.87;;
19329;SDS011;9799;48.214;16.388;2023-01-19T04:53:55;13.97;;;9.00;;
19329;SDS011;9799;48.214;16.388;2023-01-19T04:57:18;9.37;;;8.37;;
19329;SDS011;9799;48.214;16.388;2023-01-19T05:00:39;11.00;;;9.10;;
19329;SDS011;9799;48.214;16.388;2023-01-19T05:04:00;11.63;;;9.13;;
19329;SDS011;9799;48.214;16.388;2023-01-19T05:07:23;12.57;;;9.60;;
19329;SDS011;9799;48.214;16.388;2023-01-19T05:10:44;11.17;;;9.27;;
19329;SDS011;9799;48.214;16.388;2023-01-19T05:14:08;9.73;;;8.00;;
19329;SDS011;9799;48.214;16.388;2023-01-19T05:17:29;15.03;;;9.77;;
19329;SDS011;9799;48.214;16.388;2023-01-19T05:20:51;12.83;;;9.17;;
19329;SDS011;9799;48.214;16.388;2023-01-19T05:24:12;12.63;;;9.33;;
19329;SDS011;9799;48.214;16.388;2023-01-19T05:27:33;11.53;;;8.93;;
19329;SDS011;9799;48.214;16.388;2023-01-19T05:30:56;11.60;;;8.77;;
19329;SDS011;9799;48.214;16.388;2023-01-19T05:34:18;11.23;;;9.27;;
19329;SDS011;9799;48.214;16.388;2023-01-19T05:37:39;10.23;;;8.93;;
19329;SDS011;9799;48.214;16.388;2023-01-19T05:41:00;15.80;;;10.30;;
19329;SDS011;9799;48.214;16.388;2023-01-19T05:44:21;13.13;;;9.43;;
19329;SDS011;9799;48.214;16.388;2023-01-19T05:47:44;10.77;;;8.80;;
19329;SDS011;9799;48.214;16.388;2023-01-19T05:51:05;12.00;;;9.40;;
19329;SDS011;9799;48.214;16.388;2023-01-19T05:54:26;25.47;;;17.27;;
19329;SDS011;9799;48.214;16.388;2023-01-19T05:57:48;16.40;;;10.97;;
19329;SDS011;9799;48.214;16.388;2023-01-19T06:01:09;13.10;;;10.47;;
19329;SDS011;9799;48.214;16.388;2023-01-19T06:04:32;10.90;;;9.17;;
19329;SDS011;9799;48.214;16.388;2023-01-19T06:07:54;9.77;;;8.40;;
19329;SDS011;9799;48.214;16.388;2023-01-19T06:11:16;11.43;;;8.77;;
19329;SDS011;9799;48.214;16.388;2023-01-19T06:14:37;11.20;;;8.57;;
19329;SDS011;9799;48.214;16.388;2023-01-19T06:17:59;12.20;;;9.77;;
19329;SDS011;9799;48.214;16.388;2023-01-19T06:21:22;10.27;;;8.90;;
19329;SDS011;9799;48.214;16.388;2023-01-19T06:24:43;12.00;;;9.10;;
19329;SDS011;9799;48.214;16.388;2023-01-19T06:28:04;11.70;;;9.53;;
19329;SDS011;9799;48.214;16.388;2023-01-19T06:31:25;13.00;;;8.63;;
19329;SDS011;9799;48.214;16.388;2023-01-19T06:34:46;12.27;;;9.03;;
19329;SDS011;9799;48.214;16.388;2023-01-19T06:38:09;12.23;;;8.50;;
19329;SDS011;9799;48.214;16.388;2023-01-19T06:41:31;12.17;;;9.37;;
19329;SDS011;9799;48.214;16.388;2023-01-19T06:44:53;11.23;;;9.27;;
19329;SDS011;9799;48.214;16.388;2023-01-19T06:48:14;12.50;;;9.67;;
19329;SDS011;9799;48.214;16.388;2023-01-19T06:51:36;11.33;;;9.13;;
19329;SDS011;9799;48.214;16.388;2023-01-19T06:54:58;16.47;;;9.13;;
19329;SDS011;9799;48.214;16.388;2023-01-19T06:58:19;11.97;;;9.33;;
19329;SDS011;9799;48.214;16.388;2023-01-19T07:01:41;12.63;;;9.63;;
19329;SDS011;9799;48.214;16.388;2023-01-19T07:05:02;10.00;;;8.13;;
19329;SDS011;9799;48.214;16.388;2023-01-19T07:08:25;11.27;;;8.50;;
19329;SDS011;9799;48.214;16.388;2023-01-19T07:11:47;10.30;;;8.03;;
19329;SDS011;9799;48.214;16.388;2023-01-19T07:15:08;10.67;;;7.83;;
19329;SDS011;9799;48.214;16.388;2023-01-19T07:18:30;11.37;;;8.17;;
19329;SDS011;9799;48.214;16.388;2023-01-19T07:21:52;14.93;;;9.07;;
19329;SDS011;9799;48.214;16.388;2023-01-19T07:25:13;15.33;;;8.90;;
19329;SDS011;9799;48.214;16.388;2023-01-19T07:28:36;12.67;;;7.60;;
19329;SDS011;9799;48.214;16.388;2023-01-19T07:31:57;11.60;;;8.00;;
19329;SDS011;9799;48.214;16.388;2023-01-19T07:35:18;10.97;;;7.47;;
19329;SDS011;9799;48.214;16.388;2023-01-19T07:38:40;9.37;;;7.37;;
19329;SDS011;9799;48.214;16.388;2023-01-19T07:42:01;9.50;;;7.20;;
19329;SDS011;9799;48.214;16.388;2023-01-19T07:45:25;9.87;;;7.20;;
19329;SDS011;9799;48.214;16.388;2023-01-19T07:48:46;11.03;;;8.70;;
19329;SDS011;9799;48.214;16.388;2023-01-19T07:52:08;11.17;;;7.93;;
19329;SDS011;9799;48.214;16.388;2023-01-19T07:55:30;10.53;;;7.27;;
19329;SDS011;9799;48.214;16.388;2023-01-19T07:58:51;9.10;;;7.83;;
19329;SDS011;9799;48.214;16.388;2023-01-19T08:02:13;11.43;;;8.60;;
19329;SDS011;9799;48.214;16.388;2023-01-19T08:05:34;12.13;;;7.77;;
19329;SDS011;9799;48.214;16.388;2023-01-19T08:08:56;11.03;;;8.27;;
19329;SDS011;9799;48.214;16.388;2023-01-19T08:12:17;10.43;;;8.03;;
19329;SDS011;9799;48.214;16.388;2023-01-19T08:15:38;12.27;;;8.33;;
19329;SDS011;9799;48.214;16.388;2023-01-19T08:19:01;10.80;;;7.87;;
19329;SDS011;9799;48.214;16.388;2023-01-19T08:22:22;11.00;;;7.97;;
19329;SDS011;9799;48.214;16.388;2023-01-19T08:25:44;10.47;;;7.80;;
19329;SDS011;9799;48.214;16.388;2023-01-19T08:29:05;11.60;;;8.37;;
19329;SDS011;9799;48.214;16.388;2023-01-19T08:32:26;10.97;;;7.37;;
19329;SDS011;9799;48.214;16.388;2023-01-19T08:35:50;11.40;;;8.67;;
19329;SDS011;9799;48.214;16.388;2023-01-19T08:39:12;11.47;;;8.03;;
19329;SDS011;9799;48.214;16.388;2023-01-19T08:42:33;10.40;;;7.60;;
19329;SDS011;9799;48.214;16.388;2023-01-19T08:45:54;10.10;;;7.20;;
19329;SDS011;9799;48.214;16.388;2023-01-19T08:49:16;10.20;;;8.20;;
19329;SDS011;9799;48.214;16.388;2023-01-19T08:52:38;10.00;;;7.90;;
19329;SDS011;9799;48.214;16.388;2023-01-19T08:55:59;9.83;;;8.00;;
19329;SDS011;9799;48.214;16.388;2023-01-19T08:59:20;11.17;;;8.17;;
19329;SDS011;9799;48.214;16.388;2023-01-19T09:02:42;9.73;;;8.20;;
19329;SDS011;9799;48.214;16.388;2023-01-19T09:06:04;10.40;;;8.33;;
19329;SDS011;9799;48.214;16.388;2023-01-19T09:09:27;10.60;;;8.17;;
19329;SDS011;9799;48.214;16.388;2023-01-19T09:12:48;10.20;;;7.77;;
19329;SDS011;9799;48.214;16.388;2023-01-19T09:16:09;9.33;;;7.60;;
19329;SDS011;9799;48.214;16.388;2023-01-19T09:19:32;9.10;;;7.07;;
19329;SDS011;9799;48.214;16.388;2023-01-19T09:22:54;8.43;;;6.37;;
19329;SDS011;9799;48.214;16.388;2023-01-19T09:26:16;7.03;;;5.60;;
19329;SDS011;9799;48.214;16.388;2023-01-19T09:29:37;6.77;;;5.60;;
19329;SDS011;9799;48.214;16.388;2023-01-19T09:33:02;8.77;;;6.10;;
19329;SDS011;9799;48.214;16.388;2023-01-19T09:36:24;7.83;;;6.40;;
19329;SDS011;9799;48.214;16.388;2023-01-19T09:39:45;6.33;;;5.20;;
19329;SDS011;9799;48.214;16.388;2023-01-19T09:43:12;7.37;;;5.77;;
19329;SDS011;9799;48.214;16.388;2023-01-19T09:46:37;7.20;;;5.00;;
19329;SDS011;9799;48.214;16.388;2023-01-19T09:50:00;8.40;;;6.57;;
19329;SDS011;9799;48.214;16.388;2023-01-19T09:53:24;6.73;;;5.57;;
19329;SDS011;9799;48.214;16.388;2023-01-19T09:56:54;6.57;;;5.70;;
19329;SDS011;9799;48.214;16.388;2023-01-19T10:00:17;7.73;;;5.93;;
19329;SDS011;9799;48.214;16.388;2023-01-19T10:03:38;10.03;;;6.07;;
19329;SDS011;9799;48.214;16.388;2023-01-19T10:07:08;7.57;;;6.43;;
19329;SDS011;9799;48.214;16.388;2023-01-19T10:10:34;7.40;;;5.70;;
19329;SDS011;9799;48.214;16.388;2023-01-19T10:13:57;7.70;;;6.30;;
19329;SDS011;9799;48.214;16.388;2023-01-19T10:17:23;8.23;;;5.80;;
19329;SDS011;9799;48.214;16.388;2023-01-19T10:20:54;7.30;;;5.77;;
19329;SDS011;9799;48.214;16.388;2023-01-19T10:24:22;7.30;;;5.50;;
19329;SDS011;9799;48.214;16.388;2023-01-19T10:27:47;7.27;;;5.33;;
19329;SDS011;9799;48.214;16.388;2023-01-19T10:31:08;8.57;;;6.40;;
19329;SDS011;9799;48.214;16.388;2023-01-19T10:34:31;6.03;;;5.43;;
19329;SDS011;9799;48.214;16.388;2023-01-19T10:37:53;9.07;;;6.40;;
19329;SDS011;9799;48.214;16.388;2023-01-19T10:41:18;9.53;;;6.07;;
19329;SDS011;9799;48.214;16.388;2023-01-19T10:44:45;10.43;;;7.27;;
19329;SDS011;9799;48.214;16.388;2023-01-19T10:48:07;10.73;;;7.37;;
19329;SDS011;9799;48.214;16.388;2023-01-19T10:51:32;12.17;;;7.60;;
19329;SDS011;9799;48.214;16.388;2023-01-19T10:55:05;10.70;;;7.83;;
19329;SDS011;9799;48.214;16.388;2023-01-19T10:58:31;10.90;;;7.30;;
19329;SDS011;9799;48.214;16.388;2023-01-19T11:02:02;10.77;;;9.07;;
19329;SDS011;9799;48.214;16.388;2023-01-19T11:05:34;10.00;;;7.77;;
19329;SDS011;9799;48.214;16.388;2023-01-19T11:09:10;11.47;;;7.97;;
19329;SDS011;9799;48.214;16.388;2023-01-19T11:12:38;10.97;;;7.70;;
19329;SDS011;9799;48.214;16.388;2023-01-19T11:16:03;12.00;;;6.80;;
19329;SDS011;9799;48.214;16.388;2023-01-19T11:19:26;9.67;;;7.87;;
19329;SDS011;9799;48.214;16.388;2023-01-19T11:22:54;7.27;;;6.53;;
19329;SDS011;9799;48.214;16.388;2023-01-19T11:26:26;10.17;;;6.37;;
19329;SDS011;9799;48.214;16.388;2023-01-19T11:29:52;7.70;;;6.33;;
19329;SDS011;9799;48.214;16.388;2023-01-19T11:33:23;6.60;;;5.83;;
19329;SDS011;9799;48.214;16.388;2023-01-19T11:36:53;9.00;;;5.53;;
19329;SDS011;9799;48.214;16.388;2023-01-19T11:40:16;7.00;;;5.37;;
19329;SDS011;9799;48.214;16.388;2023-01-19T11:43:38;8.10;;;5.27;;
19329;SDS011;9799;48.214;16.388;2023-01-19T11:47:01;11.33;;;5.77;;
19329;SDS011;9799;48.214;16.388;2023-01-19T11:50:26;6.50;;;5.23;;
19329;SDS011;9799;48.214;16.388;2023-01-19T11:53:51;6.90;;;4.20;;
19329;SDS011;9799;48.214;16.388;2023-01-19T11:57:14;5.03;;;4.00;;
19329;SDS011;9799;48.214;16.388;2023-01-19T12:00:39;4.53;;;3.27;;
19329;SDS011;9799;48.214;16.388;2023-01-19T12:04:06;4.73;;;3.70;;
19329;SDS011;9799;48.214;16.388;2023-01-19T12:07:33;3.73;;;3.17;;
19329;SDS011;9799;48.214;16.388;2023-01-19T12:10:56;6.57;;;3.90;;
19329;SDS011;9799;48.214;16.388;2023-01-19T12:14:21;4.67;;;3.63;;
19329;SDS011;9799;48.214;16.388;2023-01-19T12:17:47;4.50;;;3.80;;
19329;SDS011;9799;48.214;16.388;2023-01-19T12:21:09;5.50;;;3.60;;
19329;SDS011;9799;48.214;16.388;2023-01-19T12:24:33;5.47;;;4.20;;
19329;SDS011;9799;48.214;16.388;2023-01-19T12:28:00;5.67;;;3.97;;
19329;SDS011;9799;48.214;16.388;2023-01-19T12:31:22;5.83;;;4.53;;
19329;SDS011;9799;48.214;16.388;2023-01-19T12:34:45;7.80;;;4.17;;
19329;SDS011;9799;48.214;16.388;2023-01-19T12:38:21;8.00;;;4.07;;
19329;SDS011;9799;48.214;16.388;2023-01-19T12:42:02;10.40;;;4.40;;
19329;SDS011;9799;48.214;16.388;2023-01-19T12:45:31;7.43;;;5.03;;
19329;SDS011;9799;48.214;16.388;2023-01-19T12:48:54;5.20;;;4.23;;
19329;SDS011;9799;48.214;16.388;2023-01-19T12:52:25;5.23;;;4.23;;
19329;SDS011;9799;48.214;16.388;2023-01-19T12:55:56;6.27;;;5.07;;
19329;SDS011;9799;48.214;16.388;2023-01-19T12:59:21;7.07;;;4.97;;
19329;SDS011;9799;48.214;16.388;2023-01-19T13:02:45;5.20;;;4.10;;
19329;SDS011;9799;48.214;16.388;2023-01-19T13:06:07;5.80;;;4.90;;
19329;SDS011;9799;48.214;16.388;2023-01-19T13:09:30;5.43;;;4.43;;
19329;SDS011;9799;48.214;16.388;2023-01-19T13:20:42;8.20;;;4.33;;
19329;SDS011;9799;48.214;16.388;2023-01-19T13:24:06;5.00;;;4.37;;
19329;SDS011;9799;48.214;16.388;2023-01-19T13:27:31;5.77;;;4.10;;
19329;SDS011;9799;48.214;16.388;2023-01-19T13:30:55;5.80;;;4.87;;
19329;SDS011;9799;48.214;16.388;2023-01-19T13:34:19;5.13;;;4.60;;
19329;SDS011;9799;48.214;16.388;2023-01-19T13:37:42;8.10;;;5.00;;
19329;SDS011;9799;48.214;16.388;2023-01-19T13:41:05;10.40;;;7.13;;
19329;SDS011;9799;48.214;16.388;2023-01-19T13:44:28;9.50;;;7.73;;
19329;SDS011;9799;48.214;16.388;2023-01-19T13:47:52;12.30;;;8.77;;
19329;SDS011;9799;48.214;16.388;2023-01-19T13:51:16;10.90;;;8.90;;
19329;SDS011;9799;48.214;16.388;2023-01-19T13:54:45;11.93;;;9.67;;
19329;SDS011;9799;48.214;16.388;2023-01-19T13:58:17;13.83;;;10.50;;
19329;SDS011;9799;48.214;16.388;2023-01-19T14:01:42;16.03;;;10.57;;
19329;SDS011;9799;48.214;16.388;2023-01-19T14:05:11;15.23;;;11.83;;
19329;SDS011;9799;48.214;16.388;2023-01-19T14:08:34;15.53;;;11.00;;
19329;SDS011;9799;48.214;16.388;2023-01-19T14:12:05;16.17;;;11.87;;
19329;SDS011;9799;48.214;16.388;2023-01-19T14:15:31;16.13;;;12.13;;
19329;SDS011;9799;48.214;16.388;2023-01-19T14:18:59;18.03;;;11.87;;
19329;SDS011;9799;48.214;16.388;2023-01-19T14:22:21;19.13;;;12.77;;
19329;SDS011;9799;48.214;16.388;2023-01-19T14:25:57;16.03;;;11.90;;
19329;SDS011;9799;48.214;16.388;2023-01-19T14:29:23;18.30;;;12.40;;
19329;SDS011;9799;48.214;16.388;2023-01-19T14:32:45;16.13;;;11.40;;
19329;SDS011;9799;48.214;16.388;2023-01-19T14:36:09;16.60;;;11.57;;
19329;SDS011;9799;48.214;16.388;2023-01-19T14:39:45;15.50;;;11.80;;
19329;SDS011;9799;48.214;16.388;2023-01-19T14:43:09;16.60;;;11.43;;
19329;SDS011;9799;48.214;16.388;2023-01-19T14:46:32;27.50;;;19.43;;
19329;SDS011;9799;48.214;16.388;2023-01-19T14:49:54;14.17;;;11.77;;
19329;SDS011;9799;48.214;16.388;2023-01-19T14:53:21;16.47;;;11.33;;
19329;SDS011;9799;48.214;16.388;2023-01-19T14:56:45;14.47;;;10.83;;
19329;SDS011;9799;48.214;16.388;2023-01-19T15:00:11;13.60;;;10.10;;
19329;SDS011;9799;48.214;16.388;2023-01-19T15:03:34;18.47;;;10.67;;
19329;SDS011;9799;48.214;16.388;2023-01-19T15:06:55;16.33;;;10.83;;
19329;SDS011;9799;48.214;16.388;2023-01-19T15:10:19;16.13;;;11.73;;
19329;SDS011;9799;48.214;16.388;2023-01-19T15:13:42;15.40;;;10.27;;
19329;SDS011;9799;48.214;16.388;2023-01-19T15:17:04;16.73;;;11.90;;
19329;SDS011;9799;48.214;16.388;2023-01-19T15:20:25;16.33;;;12.87;;
19329;SDS011;9799;48.214;16.388;2023-01-19T15:23:47;18.43;;;12.27;;
19329;SDS011;9799;48.214;16.388;2023-01-19T15:27:10;19.33;;;13.43;;
19329;SDS011;9799;48.214;16.388;2023-01-19T15:30:32;22.97;;;14.10;;
19329;SDS011;9799;48.214;16.388;2023-01-19T15:33:53;20.73;;;13.10;;
19329;SDS011;9799;48.214;16.388;2023-01-19T15:37:14;23.50;;;14.83;;
19329;SDS011;9799;48.214;16.388;2023-01-19T15:40:36;16.13;;;12.83;;
19329;SDS011;9799;48.214;16.388;2023-01-19T15:43:58;18.87;;;14.37;;
19329;SDS011;9799;48.214;16.388;2023-01-19T15:47:20;18.47;;;13.93;;
19329;SDS011;9799;48.214;16.388;2023-01-19T15:50:42;19.63;;;13.93;;
19329;SDS011;9799;48.214;16.388;2023-01-19T15:54:04;16.47;;;12.73;;
19329;SDS011;9799;48.214;16.388;2023-01-19T15:57:28;14.87;;;11.97;;
19329;SDS011;9799;48.214;16.388;2023-01-19T16:00:54;19.07;;;14.07;;
19329;SDS011;9799;48.214;16.388;2023-01-19T16:04:16;18.17;;;14.30;;
19329;SDS011;9799;48.214;16.388;2023-01-19T16:07:37;20.30;;;14.03;;
19329;SDS011;9799;48.214;16.388;2023-01-19T16:11:02;19.93;;;13.43;;
19329;SDS011;9799;48.214;16.388;2023-01-19T16:14:24;19.57;;;13.73;;
19329;SDS011;9799;48.214;16.388;2023-01-19T16:17:46;25.43;;;15.20;;
19329;SDS011;9799;48.214;16.388;2023-01-19T16:21:07;18.90;;;13.93;;
19329;SDS011;9799;48.214;16.388;2023-01-19T16:24:29;16.07;;;12.47;;
19329;SDS011;9799;48.214;16.388;2023-01-19T16:27:50;20.10;;;12.30;;
19329;SDS011;9799;48.214;16.388;2023-01-19T16:31:12;16.80;;;14.10;;
19329;SDS011;9799;48.214;16.388;2023-01-19T16:34:36;16.37;;;12.17;;
19329;SDS011;9799;48.214;16.388;2023-01-19T16:37:57;14.40;;;11.80;;
19329;SDS011;9799;48.214;16.388;2023-01-19T16:41:19;19.93;;;13.43;;
19329;SDS011;9799;48.214;16.388;2023-01-19T16:44:41;17.93;;;12.47;;
19329;SDS011;9799;48.214;16.388;2023-01-19T16:48:02;19.33;;;12.43;;
19329;SDS011;9799;48.214;16.388;2023-01-19T16:51:25;30.00;;;20.53;;
19329;SDS011;9799;48.214;16.388;2023-01-19T16:54:48;16.90;;;12.83;;
19329;SDS011;9799;48.214;16.388;2023-01-19T16:58:13;16.87;;;12.93;;
19329;SDS011;9799;48.214;16.388;2023-01-19T17:01:34;17.10;;;12.50;;
19329;SDS011;9799;48.214;16.388;2023-01-19T17:04:57;16.70;;;12.57;;
19329;SDS011;9799;48.214;16.388;2023-01-19T17:08:20;17.50;;;12.30;;
19329;SDS011;9799;48.214;16.388;2023-01-19T17:11:41;16.93;;;11.83;;
19329;SDS011;9799;48.214;16.388;2023-01-19T17:15:03;16.10;;;13.10;;
19329;SDS011;9799;48.214;16.388;2023-01-19T17:18:27;16.73;;;12.07;;
19329;SDS011;9799;48.214;16.388;2023-01-19T17:21:51;14.13;;;11.70;;
19329;SDS011;9799;48.214;16.388;2023-01-19T17:25:14;13.57;;;12.00;;
19329;SDS011;9799;48.214;16.388;2023-01-19T17:28:37;17.77;;;12.90;;
19329;SDS011;9799;48.214;16.388;2023-01-19T17:31:58;15.80;;;12.20;;
19329;SDS011;9799;48.214;16.388;2023-01-19T17:35:22;16.53;;;12.00;;
19329;SDS011;9799;48.214;16.388;2023-01-19T17:38:44;13.97;;;11.00;;
19329;SDS011;9799;48.214;16.388;2023-01-19T17:42:08;17.03;;;12.33;;
19329;SDS011;9799;48.214;16.388;2023-01-19T17:45:30;18.20;;;12.70;;
19329;SDS011;9799;48.214;16.388;2023-01-19T17:48:55;16.93;;;12.90;;
19329;SDS011;9799;48.214;16.388;2023-01-19T17:52:18;17.90;;;12.40;;
19329;SDS011;9799;48.214;16.388;2023-01-19T17:55:40;17.70;;;12.50;;
19329;SDS011;9799;48.214;16.388;2023-01-19T17:59:04;18.37;;;11.30;;
19329;SDS011;9799;48.214;16.388;2023-01-19T18:02:26;18.77;;;14.23;;
19329;SDS011;9799;48.214;16.388;2023-01-19T18:05:52;16.57;;;12.63;;
19329;SDS011;9799;48.214;16.388;2023-01-19T18:09:15;18.93;;;13.60;;
19329;SDS011;9799;48.214;16.388;2023-01-19T18:12:38;19.27;;;13.80;;
19329;SDS011;9799;48.214;16.388;2023-01-19T18:16:02;17.43;;;12.80;;
19329;SDS011;9799;48.214;16.388;2023-01-19T18:19:26;23.67;;;14.40;;
19329;SDS011;9799;48.214;16.388;2023-01-19T18:22:48;15.47;;;12.63;;
19329;SDS011;9799;48.214;16.388;2023-01-19T18:26:11;19.00;;;13.50;;
19329;SDS011;9799;48.214;16.388;2023-01-19T18:29:34;16.23;;;12.13;;
19329;SDS011;9799;48.214;16.388;2023-01-19T18:32:58;17.30;;;13.07;;
19329;SDS011;9799;48.214;16.388;2023-01-19T18:36:21;19.40;;;14.37;;
19329;SDS011;9799;48.214;16.388;2023-01-19T18:39:44;15.97;;;12.17;;
19329;SDS011;9799;48.214;16.388;2023-01-19T18:43:06;21.00;;;13.47;;
19329;SDS011;9799;48.214;16.388;2023-01-19T18:46:30;20.87;;;12.70;;
19329;SDS011;9799;48.214;16.388;2023-01-19T18:49:55;16.20;;;12.63;;
19329;SDS011;9799;48.214;16.388;2023-01-19T18:53:17;16.20;;;12.07;;
19329;SDS011;9799;48.214;16.388;2023-01-19T18:56:40;20.37;;;13.57;;
19329;SDS011;9799;48.214;16.388;2023-01-19T19:00:03;17.17;;;12.83;;
19329;SDS011;9799;48.214;16.388;2023-01-19T19:03:27;16.97;;;12.23;;
19329;SDS011;9799;48.214;16.388;2023-01-19T19:06:52;20.93;;;14.33;;
19329;SDS011;9799;48.214;16.388;2023-01-19T19:10:14;15.63;;;12.33;;
19329;SDS011;9799;48.214;16.388;2023-01-19T19:13:36;20.07;;;13.10;;
19329;SDS011;9799;48.214;16.388;2023-01-19T19:16:58;18.70;;;13.50;;
19329;SDS011;9799;48.214;16.388;2023-01-19T19:20:21;16.50;;;12.40;;
19329;SDS011;9799;48.214;16.388;2023-01-19T19:23:50;18.90;;;14.17;;
19329;SDS011;9799;48.214;16.388;2023-01-19T19:27:14;16.63;;;12.67;;
19329;SDS011;9799;48.214;16.388;2023-01-19T19:30:37;17.03;;;12.67;;
19329;SDS011;9799;48.214;16.388;2023-01-19T19:34:01;18.63;;;12.67;;
19329;SDS011;9799;48.214;16.388;2023-01-19T19:37:23;19.37;;;13.47;;
19329;SDS011;9799;48.214;16.388;2023-01-19T19:40:49;20.47;;;14.23;;
19329;SDS011;9799;48.214;16.388;2023-01-19T19:44:12;19.10;;;14.07;;
19329;SDS011;9799;48.214;16.388;2023-01-19T19:47:34;20.30;;;13.67;;
19329;SDS011;9799;48.214;16.388;2023-01-19T19:51:03;21.77;;;13.23;;
19329;SDS011;9799;48.214;16.388;2023-01-19T19:54:26;18.37;;;13.57;;
19329;SDS011;9799;48.214;16.388;2023-01-19T19:57:51;20.57;;;13.77;;
19329;SDS011;9799;48.214;16.388;2023-01-19T20:01:15;18.43;;;13.27;;
19329;SDS011;9799;48.214;16.388;2023-01-19T20:04:38;17.77;;;12.43;;
19329;SDS011;9799;48.214;16.388;2023-01-19T20:08:00;18.33;;;12.77;;
19329;SDS011;9799;48.214;16.388;2023-01-19T20:11:22;16.97;;;12.83;;
19329;SDS011;9799;48.214;16.388;2023-01-19T20:14:48;16.87;;;13.30;;
19329;SDS011;9799;48.214;16.388;2023-01-19T20:18:12;18.23;;;13.23;;